Errol Airport


Codes: KERR/ERR
Name: Errol Airport
City: Errol
Country: United States
Elevation: 1245 ft.
Website:

Photos at Errol Airport


   Photos courtesy of SpottingLog. You can add your own sightings and photos by signing up for a free trial today.



No photos found.

Weather at Errol Airport


Time (UTC)DescriptionTempratureWindCloud coverageVisibilityPressureHumidity
18-Apr-2024 00:00Overcast Clouds12°C2 mph, N99%10000m1021hPa67%
18-Apr-2024 03:00Overcast Clouds9°C4 mph, E99%10000m1021hPa71%
18-Apr-2024 06:00Overcast Clouds5°C4 mph, E100%10000m1022hPa79%
18-Apr-2024 09:00Overcast Clouds0°C4 mph, E100%10000m1023hPa88%
18-Apr-2024 12:00Overcast Clouds3°C4 mph, SE100%10000m1023hPa72%
18-Apr-2024 15:00Overcast Clouds8°C11 mph, SE100%10000m1021hPa54%
18-Apr-2024 18:00Overcast Clouds11°C11 mph, SE100%10000m1020hPa50%
18-Apr-2024 21:00Overcast Clouds10°C9 mph, S99%10000m1019hPa59%
19-Apr-2024 00:00Light Rain5°C4 mph, S99%10000m1022hPa94%
19-Apr-2024 03:00Light Rain4°C4 mph, SE100%138m1022hPa98%
19-Apr-2024 06:00Overcast Clouds3°C2 mph, SE100%174m1021hPa98%
19-Apr-2024 09:00Light Rain3°C2 mph, SE100%9865m1021hPa98%
19-Apr-2024 12:00Light Rain3°C4 mph, SE100%10000m1022hPa94%
19-Apr-2024 15:00Overcast Clouds6°C7 mph, SE100%10000m1020hPa85%
19-Apr-2024 18:00Overcast Clouds9°C9 mph, SE100%10000m1017hPa71%
19-Apr-2024 21:00Overcast Clouds8°C9 mph, S100%10000m1015hPa74%
20-Apr-2024 00:00Light Rain5°C7 mph, SE100%10000m1014hPa90%
20-Apr-2024 03:00Light Rain4°C4 mph, SE100%10000m1014hPa95%
20-Apr-2024 06:00Light Rain4°C2 mph, S100%10000m1013hPa96%
20-Apr-2024 09:00Light Rain6°C11 mph, W100%10000m1013hPa89%
20-Apr-2024 12:00Overcast Clouds6°C9 mph, W88%10000m1013hPa71%
20-Apr-2024 15:00Overcast Clouds9°C13 mph, W97%10000m1011hPa46%
20-Apr-2024 18:00Overcast Clouds10°C11 mph, SW99%10000m1009hPa46%
20-Apr-2024 21:00Light Rain8°C11 mph, W100%10000m1008hPa76%
21-Apr-2024 00:00Light Snow3°C4 mph, W91%10000m1010hPa90%
21-Apr-2024 03:00Overcast Clouds2°C9 mph, W97%10000m1010hPa89%
21-Apr-2024 06:00Overcast Clouds2°C9 mph, W87%10000m1010hPa88%
21-Apr-2024 09:00Overcast Clouds2°C9 mph, W97%10000m1011hPa84%
21-Apr-2024 12:00Overcast Clouds2°C9 mph, W98%10000m1012hPa76%
21-Apr-2024 15:00Overcast Clouds4°C11 mph, W99%10000m1012hPa69%
21-Apr-2024 18:00Overcast Clouds6°C13 mph, W100%10000m1011hPa56%
21-Apr-2024 21:00Overcast Clouds6°C11 mph, W100%10000m1010hPa59%
22-Apr-2024 00:00Broken Clouds3°C7 mph, W67%10000m1012hPa73%
22-Apr-2024 03:00Clear Sky3°C9 mph, SW5%10000m1011hPa70%
22-Apr-2024 06:00Clear Sky1°C9 mph, W6%10000m1011hPa82%
22-Apr-2024 09:00Few Clouds-0°C7 mph, W23%10000m1012hPa86%
22-Apr-2024 12:00Scattered Clouds3°C11 mph, W32%10000m1012hPa73%
22-Apr-2024 15:00Light Snow4°C11 mph, W96%5510m1014hPa75%
22-Apr-2024 18:00Light Rain5°C13 mph, W98%10000m1015hPa52%
22-Apr-2024 21:00Overcast Clouds6°C13 mph, W99%10000m1015hPa45%